Dryden, Michigan
Current Conditions -  °F | °C
As of 1:33 PM on Saturday 25 Oct 2014 (Local Time) from KD95 Reporting Station
Scattered Clouds Scattered Clouds  
Wind Chill: 62°   Ceiling: Unl
Heat Index: 62°   Visibility: 10mi
Dew Point: 48°   Wind: 16mph
Humidity: 60%   Direction: 250°WSW
Pressure: 29.75"   Gusts: 22mph
Location:  42.95°N, 83.12°W
Report Text: KD95 251733Z AUTO 25014G19KT 10SM SCT027 17/09 A2975 RMK AO2 T01680090
Loading
Personal Weather Stations






























Interactive Weather Map
Tropical Storm Tracking
New forecast layout! Learn more

10-Day Weather Forecast

Advertisements
Track Severe Weather on mobile